createdAt,value
2023-05-25T00:02:15.483Z,100.00
2023-05-25T00:04:43.255Z,100.00
2023-05-25T00:07:11.103Z,100.00
2023-05-25T00:09:41.735Z,100.00
2023-05-25T00:12:09.559Z,100.00
2023-05-25T00:14:37.063Z,100.00
2023-05-25T00:17:06.060Z,100.00
2023-05-25T00:19:34.285Z,100.00
2023-05-25T00:22:04.696Z,100.00
2023-05-25T00:24:32.300Z,100.00
2023-05-25T00:26:59.897Z,100.00
2023-05-25T00:29:27.475Z,100.00
2023-05-25T00:31:55.233Z,100.00
2023-05-25T00:34:22.888Z,100.00
2023-05-25T00:36:50.615Z,100.00
2023-05-25T00:39:19.093Z,100.00
2023-05-25T00:41:46.815Z,100.00
2023-05-25T00:44:15.089Z,100.00
2023-05-25T00:46:44.909Z,100.00
2023-05-25T00:49:14.061Z,100.00
2023-05-25T00:51:42.151Z,100.00
2023-05-25T00:54:09.751Z,99.86
2023-05-25T00:56:38.655Z,97.39
2023-05-25T00:59:07.706Z,98.66
2023-05-25T01:01:40.427Z,99.39
2023-05-25T01:04:09.847Z,98.72
2023-05-25T01:06:41.006Z,97.84
2023-05-25T01:09:08.709Z,97.66
2023-05-25T01:11:37.199Z,96.62
2023-05-25T01:14:04.656Z,99.76
2023-05-25T01:16:34.250Z,99.94
2023-05-25T01:19:03.040Z,100.00
2023-05-25T01:21:56.443Z,100.00
2023-05-25T01:24:34.758Z,100.00
2023-05-25T01:27:08.366Z,99.99
2023-05-25T01:29:36.353Z,100.00
2023-05-25T01:32:04.780Z,99.80
2023-05-25T01:34:35.153Z,98.99
2023-05-25T01:37:02.661Z,99.68
2023-05-25T01:39:30.211Z,99.57
2023-05-25T01:41:57.669Z,97.00
2023-05-25T01:44:25.677Z,99.05
2023-05-25T01:46:56.259Z,100.00
2023-05-25T01:49:36.691Z,99.88
2023-05-25T01:52:08.083Z,99.84
2023-05-25T01:54:40.993Z,100.00
2023-05-25T01:57:11.689Z,100.00
2023-05-25T01:59:39.424Z,100.00
2023-05-25T02:02:07.716Z,100.00
2023-05-25T02:04:35.641Z,100.00
2023-05-25T02:07:05.192Z,100.00
2023-05-25T02:09:32.679Z,100.00
2023-05-25T02:12:01.549Z,100.00
2023-05-25T02:14:31.592Z,100.00
2023-05-25T02:17:02.129Z,100.00
2023-05-25T02:19:30.000Z,100.00
2023-05-25T02:21:57.536Z,100.00
2023-05-25T02:24:26.705Z,100.00
2023-05-25T02:26:54.218Z,100.00
2023-05-25T02:29:21.884Z,100.00
2023-05-25T02:31:49.577Z,100.00
2023-05-25T02:34:17.611Z,100.00
2023-05-25T02:36:47.929Z,100.00
2023-05-25T02:39:15.434Z,100.00
2023-05-25T02:41:43.550Z,100.00
2023-05-25T02:44:12.622Z,100.00
2023-05-25T02:46:40.122Z,100.00
2023-05-25T02:49:07.800Z,100.00
2023-05-25T02:51:36.254Z,100.00
2023-05-25T02:54:03.812Z,100.00
2023-05-25T02:56:32.608Z,99.67
2023-05-25T02:59:00.540Z,99.01
2023-05-25T03:01:35.723Z,97.43
2023-05-25T03:04:04.819Z,93.09
2023-05-25T03:06:36.747Z,89.77
2023-05-25T03:09:10.263Z,97.93
2023-05-25T03:11:38.963Z,100.00
2023-05-25T03:14:06.606Z,100.00
2023-05-25T03:16:36.661Z,100.00
2023-05-25T03:19:08.578Z,100.00
2023-05-25T03:21:38.484Z,100.00
2023-05-25T03:24:06.864Z,100.00
2023-05-25T03:26:37.130Z,100.00
2023-05-25T03:29:07.148Z,96.02
2023-05-25T03:31:35.034Z,90.33
2023-05-25T03:34:04.750Z,100.00
2023-05-25T03:36:34.198Z,100.00
2023-05-25T03:39:01.826Z,100.00
2023-05-25T03:41:29.918Z,100.00
2023-05-25T03:43:58.786Z,100.00
2023-05-25T03:46:26.875Z,100.00
2023-05-25T03:48:56.569Z,100.00
2023-05-25T03:51:24.159Z,100.00
2023-05-25T03:53:51.726Z,100.00
2023-05-25T03:56:19.286Z,99.80
2023-05-25T03:58:48.184Z,100.00
2023-05-25T04:01:16.850Z,99.98
2023-05-25T04:03:44.598Z,99.72
2023-05-25T04:06:12.413Z,98.50
2023-05-25T04:08:41.230Z,94.63
2023-05-25T04:11:08.947Z,94.59
2023-05-25T04:13:36.849Z,93.02
2023-05-25T04:16:10.402Z,85.35
2023-05-25T04:18:38.297Z,81.07
2023-05-25T04:21:05.930Z,79.49
2023-05-25T04:23:36.732Z,85.78
2023-05-25T04:26:06.328Z,85.24
2023-05-25T04:28:33.960Z,85.32
2023-05-25T04:31:27.289Z,82.23
2023-05-25T04:34:15.256Z,78.86
2023-05-25T04:36:56.881Z,74.48
2023-05-25T04:39:24.621Z,70.01
2023-05-25T04:41:57.376Z,61.06
2023-05-25T04:44:25.838Z,58.20
2023-05-25T04:46:55.756Z,56.24
2023-05-25T04:49:32.376Z,54.82
2023-05-25T04:52:00.898Z,52.03
2023-05-25T04:54:30.197Z,61.05
2023-05-25T04:57:00.186Z,56.88
2023-05-25T04:59:27.877Z,52.23
2023-05-25T05:01:55.534Z,55.79
2023-05-25T05:04:23.173Z,48.89
2023-05-25T05:06:51.562Z,45.23
2023-05-25T05:09:21.340Z,44.58
2023-05-25T05:11:49.581Z,43.35
2023-05-25T05:14:19.460Z,41.88
2023-05-25T05:16:48.378Z,40.70
2023-05-25T05:19:16.348Z,39.84
2023-05-25T05:21:44.218Z,39.56
2023-05-25T05:24:12.228Z,38.62
2023-05-25T05:26:55.391Z,37.94
2023-05-25T05:29:29.089Z,37.57
2023-05-25T05:31:56.784Z,37.50
2023-05-25T05:34:25.705Z,37.61
2023-05-25T05:36:57.893Z,37.97
2023-05-25T05:39:28.145Z,37.00
2023-05-25T05:41:56.122Z,36.11
2023-05-25T05:44:27.098Z,35.65
2023-05-25T05:47:01.009Z,35.92
2023-05-25T05:49:29.693Z,35.08
2023-05-25T05:51:58.383Z,35.24
2023-05-25T05:54:28.126Z,35.12
2023-05-25T05:56:57.596Z,35.89
2023-05-25T05:59:25.076Z,38.84
2023-05-25T06:01:53.723Z,39.54
2023-05-25T06:04:25.384Z,38.72
2023-05-25T06:06:52.918Z,39.66
2023-05-25T06:09:20.495Z,38.63
2023-05-25T06:11:48.567Z,38.86
2023-05-25T06:14:16.880Z,38.22
2023-05-25T06:16:46.169Z,37.26
2023-05-25T06:19:14.647Z,36.74
2023-05-25T06:21:42.714Z,36.57
2023-05-25T06:24:10.358Z,36.57
2023-05-25T06:26:37.905Z,34.44
2023-05-25T06:29:05.458Z,33.54
2023-05-25T06:31:33.109Z,32.10
2023-05-25T06:34:00.799Z,31.59
2023-05-25T06:36:28.445Z,31.48
2023-05-25T06:38:56.480Z,31.97
2023-05-25T06:41:24.178Z,30.80
2023-05-25T06:43:51.917Z,31.09
2023-05-25T06:46:32.976Z,31.23
2023-05-25T06:49:01.381Z,30.91
2023-05-25T06:51:29.083Z,30.81
2023-05-25T06:53:57.039Z,29.81
2023-05-25T06:56:24.681Z,31.80
2023-05-25T06:58:52.261Z,32.63
2023-05-25T07:01:19.833Z,31.30
2023-05-25T07:03:47.411Z,30.11
2023-05-25T07:06:17.127Z,32.48
2023-05-25T07:08:44.656Z,33.13
2023-05-25T07:11:14.273Z,32.78
2023-05-25T07:13:41.974Z,31.37
2023-05-25T07:16:10.082Z,31.81
2023-05-25T07:18:41.304Z,31.99
2023-05-25T07:21:10.227Z,31.35
2023-05-25T07:23:38.423Z,31.01
2023-05-25T07:26:06.417Z,29.84
2023-05-25T07:28:34.153Z,29.97
2023-05-25T07:31:01.778Z,30.24
2023-05-25T07:33:29.446Z,30.40
2023-05-25T07:35:56.945Z,30.56
2023-05-25T07:38:24.520Z,30.47
2023-05-25T07:40:52.724Z,28.70
2023-05-25T07:43:21.102Z,29.21
2023-05-25T07:45:48.623Z,30.02
2023-05-25T07:48:16.360Z,30.25
2023-05-25T07:50:44.010Z,30.71
2023-05-25T07:53:11.496Z,28.79
2023-05-25T07:55:39.070Z,28.57
2023-05-25T07:58:07.817Z,29.25
2023-05-25T08:00:35.765Z,29.93
2023-05-25T08:03:03.506Z,27.98
2023-05-25T08:05:31.231Z,26.64
2023-05-25T08:07:59.132Z,27.13
2023-05-25T08:10:32.572Z,29.29
2023-05-25T08:13:00.209Z,30.00
2023-05-25T08:15:29.143Z,29.68
2023-05-25T08:17:56.897Z,29.43
2023-05-25T08:20:27.393Z,29.47
2023-05-25T08:22:54.917Z,29.03
2023-05-25T08:25:22.424Z,28.90
2023-05-25T08:27:49.984Z,29.17
2023-05-25T08:30:17.444Z,29.28
2023-05-25T08:32:45.474Z,29.36
2023-05-25T08:35:16.846Z,29.54
2023-05-25T08:37:45.306Z,27.84
2023-05-25T08:40:17.169Z,26.92
2023-05-25T08:42:45.374Z,25.61
2023-05-25T08:45:26.482Z,25.29
2023-05-25T08:48:02.736Z,24.44
2023-05-25T08:50:50.780Z,24.55
2023-05-25T08:53:18.326Z,23.94
2023-05-25T08:55:46.352Z,23.23
2023-05-25T08:58:21.267Z,22.61
2023-05-25T09:00:57.572Z,24.41
2023-05-25T09:03:25.620Z,25.22
2023-05-25T09:05:53.284Z,25.02
2023-05-25T09:08:20.805Z,25.91
2023-05-25T09:10:48.213Z,27.03
2023-05-25T09:15:46.408Z,28.54
2023-05-25T09:18:14.147Z,28.08
2023-05-25T09:20:44.258Z,26.78
2023-05-25T09:23:13.735Z,25.17
2023-05-25T09:25:41.375Z,24.46
2023-05-25T09:28:25.329Z,24.84
2023-05-25T09:30:54.954Z,24.78
2023-05-25T09:33:44.203Z,25.00
2023-05-25T09:36:15.467Z,25.43
2023-05-25T09:38:43.218Z,25.80
2023-05-25T09:41:10.900Z,25.61
2023-05-25T09:43:41.858Z,25.23
2023-05-25T09:46:14.514Z,24.64
2023-05-25T09:48:43.386Z,23.58
2023-05-25T09:51:11.689Z,23.30
2023-05-25T09:53:39.281Z,21.99
2023-05-25T09:56:07.061Z,21.62
2023-05-25T09:58:35.291Z,21.78
2023-05-25T10:01:04.805Z,21.87
2023-05-25T10:03:33.401Z,22.68
2023-05-25T10:06:01.258Z,23.31
2023-05-25T10:08:29.172Z,22.85
2023-05-25T10:10:58.272Z,23.07
2023-05-25T10:13:25.889Z,22.40
2023-05-25T10:15:54.768Z,21.58
2023-05-25T10:18:27.559Z,20.96
2023-05-25T10:21:04.774Z,22.51
2023-05-25T10:23:42.142Z,23.18
2023-05-25T10:26:09.923Z,24.28
2023-05-25T10:28:38.329Z,25.51
2023-05-25T10:31:07.465Z,25.82
2023-05-25T10:33:35.175Z,26.46
2023-05-25T10:36:10.784Z,26.79
2023-05-25T10:38:40.140Z,26.37
2023-05-25T10:41:09.658Z,25.68
2023-05-25T10:43:57.126Z,25.15
2023-05-25T10:46:24.660Z,25.16
2023-05-25T10:48:52.916Z,25.02
2023-05-25T10:51:20.888Z,24.05
2023-05-25T10:54:02.171Z,24.15
2023-05-25T10:56:30.519Z,23.64
2023-05-25T10:58:58.197Z,23.71
2023-05-25T11:01:25.998Z,22.65
2023-05-25T11:03:55.988Z,22.78
2023-05-25T11:07:05.537Z,22.65
2023-05-25T11:09:33.090Z,23.18
2023-05-25T11:12:02.125Z,23.09
2023-05-25T11:14:30.784Z,25.43
2023-05-25T11:17:12.197Z,25.52
2023-05-25T11:19:43.617Z,25.77
2023-05-25T11:22:15.393Z,26.30
2023-05-25T11:24:47.543Z,26.09
2023-05-25T11:27:15.054Z,26.31
2023-05-25T11:29:42.482Z,25.95
2023-05-25T11:32:14.506Z,25.89
2023-05-25T11:34:46.823Z,26.36
2023-05-25T11:37:21.419Z,26.65
2023-05-25T11:39:50.197Z,26.26
2023-05-25T11:42:23.327Z,26.15
2023-05-25T11:44:51.464Z,26.00
2023-05-25T11:47:23.423Z,25.79
2023-05-25T11:49:51.464Z,25.57
2023-05-25T11:52:20.445Z,25.67
2023-05-25T11:54:48.228Z,25.51
2023-05-25T11:57:24.994Z,25.81
2023-05-25T11:59:54.545Z,26.34
2023-05-25T12:02:22.290Z,25.36
2023-05-25T12:05:00.213Z,24.33
2023-05-25T12:07:33.934Z,24.05
2023-05-25T12:10:19.587Z,23.62
2023-05-25T12:12:51.173Z,24.47
2023-05-25T12:15:22.086Z,24.41
2023-05-25T12:17:51.477Z,24.77
2023-05-25T12:20:19.289Z,24.81
2023-05-25T12:22:47.065Z,24.88
2023-05-25T12:25:18.360Z,25.23
2023-05-25T12:27:46.484Z,25.24
2023-05-25T12:30:14.156Z,25.48
2023-05-25T12:33:06.058Z,25.34
2023-05-25T12:36:00.387Z,25.88
2023-05-25T12:38:27.879Z,26.85
2023-05-25T12:41:06.693Z,26.39
2023-05-25T12:43:40.574Z,26.35
2023-05-25T12:46:08.684Z,25.61
2023-05-25T12:48:36.360Z,23.74
2023-05-25T12:51:04.143Z,23.23
2023-05-25T12:53:31.662Z,23.55
2023-05-25T12:56:03.522Z,24.59
2023-05-25T12:58:31.502Z,25.20
2023-05-25T13:01:00.605Z,25.26
2023-05-25T13:03:28.423Z,25.20
2023-05-25T13:06:00.994Z,25.25
2023-05-25T13:08:29.226Z,25.24
2023-05-25T13:10:56.712Z,24.75
2023-05-25T13:13:24.243Z,24.78
2023-05-25T13:15:51.736Z,24.15
2023-05-25T13:18:19.305Z,23.48
2023-05-25T13:20:49.429Z,23.41
2023-05-25T13:23:18.426Z,23.47
2023-05-25T13:25:47.320Z,23.33
2023-05-25T13:28:14.798Z,25.31
2023-05-25T13:30:43.001Z,25.97
2023-05-25T13:33:11.075Z,25.70
2023-05-25T13:35:46.415Z,26.51
2023-05-25T13:38:17.295Z,27.14
2023-05-25T13:41:05.538Z,27.92
2023-05-25T13:43:33.909Z,27.97
2023-05-25T13:46:02.757Z,27.69
2023-05-25T13:48:30.639Z,26.87
2023-05-25T13:51:00.006Z,26.48
2023-05-25T13:53:28.833Z,26.37
2023-05-25T13:55:56.604Z,25.77
2023-05-25T13:58:25.511Z,25.68
2023-05-25T14:00:53.156Z,25.44
2023-05-25T14:03:21.530Z,24.77
2023-05-25T14:05:49.832Z,24.99
2023-05-25T14:08:20.795Z,25.39
2023-05-25T14:10:48.726Z,25.44
2023-05-25T14:13:16.304Z,25.23
2023-05-25T14:15:45.207Z,26.21
2023-05-25T14:18:13.033Z,26.15
2023-05-25T14:20:42.869Z,26.07
2023-05-25T14:23:15.105Z,26.87
2023-05-25T14:25:44.233Z,27.30
2023-05-25T14:28:12.642Z,28.47
2023-05-25T14:30:40.693Z,28.70
2023-05-25T14:33:08.440Z,29.74
2023-05-25T14:35:35.960Z,27.73
2023-05-25T14:38:03.717Z,26.79
2023-05-25T14:40:31.441Z,25.77
2023-05-25T14:42:59.203Z,26.01
2023-05-25T14:45:26.793Z,25.34
2023-05-25T14:48:00.858Z,25.71
2023-05-25T14:50:35.771Z,25.45
2023-05-25T14:53:03.653Z,24.84
2023-05-25T14:55:31.532Z,24.25
2023-05-25T14:57:58.976Z,23.17
2023-05-25T15:00:26.823Z,23.45
2023-05-25T15:02:54.457Z,23.36
2023-05-25T15:05:23.398Z,24.20
2023-05-25T15:07:50.989Z,24.24
2023-05-25T15:10:18.838Z,24.49
2023-05-25T15:12:47.447Z,24.99
2023-05-25T15:15:15.664Z,25.84
2023-05-25T15:17:43.748Z,26.71
2023-05-25T15:20:11.540Z,27.37
2023-05-25T15:22:39.769Z,27.41
2023-05-25T15:25:07.456Z,27.45
2023-05-25T15:27:35.744Z,27.37
2023-05-25T15:30:04.728Z,27.58
2023-05-25T15:32:32.316Z,27.95
2023-05-25T15:34:59.889Z,28.49
2023-05-25T15:37:27.441Z,29.74
2023-05-25T15:39:55.145Z,31.16
2023-05-25T15:42:22.968Z,32.91
2023-05-25T15:44:50.578Z,35.18
2023-05-25T15:47:23.077Z,37.18
2023-05-25T15:49:51.756Z,38.31
2023-05-25T15:52:19.200Z,38.91
2023-05-25T15:57:55.997Z,40.12
2023-05-25T16:00:22.990Z,40.66
2023-05-25T16:02:50.132Z,41.12
2023-05-25T16:05:17.345Z,41.75
2023-05-25T16:07:44.038Z,42.25
2023-05-25T16:10:10.819Z,42.64
2023-05-25T16:12:37.966Z,43.36
2023-05-25T16:15:05.574Z,43.67
2023-05-25T16:17:32.791Z,43.97
2023-05-25T16:20:01.132Z,44.01
2023-05-25T16:22:27.898Z,41.08
2023-05-25T16:24:54.720Z,39.61
2023-05-25T16:27:21.442Z,39.59
2023-05-25T16:29:48.348Z,39.74
2023-05-25T16:32:15.196Z,39.43
2023-05-25T16:34:42.245Z,39.38
2023-05-25T16:37:09.255Z,39.46
2023-05-25T16:39:36.215Z,39.18
2023-05-25T16:42:04.544Z,42.04
2023-05-25T16:44:31.405Z,45.33
2023-05-25T16:46:58.198Z,46.63
2023-05-25T16:49:25.018Z,47.51
2023-05-25T16:51:51.969Z,48.36
2023-05-25T16:54:21.046Z,48.65
2023-05-25T16:56:47.801Z,48.86
2023-05-25T16:59:14.537Z,49.33
2023-05-25T17:01:41.681Z,50.31
2023-05-25T17:04:09.942Z,52.35
2023-05-25T17:06:38.695Z,54.09
2023-05-25T17:09:05.365Z,49.92
2023-05-25T17:11:33.195Z,46.20
2023-05-25T17:13:59.886Z,45.35
2023-05-25T17:16:26.658Z,43.86
2023-05-25T17:18:53.282Z,43.30
2023-05-25T17:21:20.180Z,43.24
2023-05-25T17:23:48.250Z,43.25
2023-05-25T17:26:14.994Z,43.20
2023-05-25T17:28:42.370Z,49.67
2023-05-25T17:31:09.659Z,56.90
2023-05-25T17:33:38.178Z,60.01
2023-05-25T17:36:05.559Z,57.29
2023-05-25T17:38:34.457Z,47.21
2023-05-25T17:41:03.557Z,44.27
2023-05-25T17:43:31.407Z,49.25
2023-05-25T17:45:58.804Z,57.21
2023-05-25T17:48:25.445Z,64.66
2023-05-25T17:50:52.498Z,73.16
2023-05-25T17:53:19.711Z,74.85
2023-05-25T17:55:46.591Z,79.65
2023-05-25T17:58:14.237Z,68.12
2023-05-25T18:00:41.151Z,68.71
2023-05-25T18:03:08.149Z,72.75
2023-05-25T18:05:35.569Z,83.84
2023-05-25T18:08:03.822Z,94.02
2023-05-25T18:10:30.781Z,100.00
2023-05-25T18:12:59.376Z,98.94
2023-05-25T18:15:27.170Z,100.00
2023-05-25T18:17:54.272Z,100.00
2023-05-25T18:20:21.178Z,100.00
2023-05-25T18:22:48.065Z,100.00
2023-05-25T18:25:16.344Z,100.00
2023-05-25T18:27:43.983Z,100.00
2023-05-25T18:30:11.340Z,100.00
2023-05-25T18:32:38.212Z,79.86
2023-05-25T18:35:06.093Z,87.16
2023-05-25T18:37:35.054Z,84.30
2023-05-25T18:40:02.794Z,88.96
2023-05-25T18:42:30.206Z,96.02
2023-05-25T18:44:57.003Z,98.26
2023-05-25T18:47:23.797Z,100.00
2023-05-25T18:49:51.299Z,100.00
2023-05-25T18:52:18.468Z,100.00
2023-05-25T18:54:46.012Z,100.00
2023-05-25T18:57:12.858Z,100.00
2023-05-25T18:59:41.365Z,100.00
2023-05-25T19:02:08.280Z,100.00
2023-05-25T19:04:36.240Z,100.00
2023-05-25T19:07:03.019Z,100.00
2023-05-25T19:09:30.638Z,100.00
2023-05-25T19:11:57.617Z,100.00
2023-05-25T19:14:24.436Z,100.00
2023-05-25T19:16:51.463Z,100.00
2023-05-25T19:19:18.916Z,100.00
2023-05-25T19:21:45.579Z,100.00
2023-05-25T19:24:12.461Z,100.00
2023-05-25T19:26:39.251Z,100.00
2023-05-25T19:29:06.601Z,100.00
2023-05-25T19:31:34.611Z,100.00
2023-05-25T19:34:01.838Z,100.00
2023-05-25T19:36:28.800Z,100.00
2023-05-25T19:38:55.586Z,100.00
2023-05-25T19:41:22.523Z,100.00
2023-05-25T19:43:49.130Z,100.00
2023-05-25T19:46:15.981Z,100.00
2023-05-25T19:48:42.864Z,100.00
2023-05-25T19:51:09.825Z,100.00
2023-05-25T19:53:36.877Z,100.00
2023-05-25T19:56:03.966Z,100.00
2023-05-25T19:58:32.451Z,100.00
2023-05-25T20:00:59.257Z,100.00
2023-05-25T20:03:26.336Z,100.00
2023-05-25T20:05:53.428Z,100.00
2023-05-25T20:08:20.274Z,100.00
2023-05-25T20:10:48.262Z,100.00
2023-05-25T20:13:15.492Z,100.00
2023-05-25T20:15:43.532Z,100.00
2023-05-25T20:18:10.829Z,100.00
2023-05-25T20:20:37.662Z,100.00
2023-05-25T20:23:04.569Z,100.00
2023-05-25T20:25:34.329Z,100.00
2023-05-25T20:28:01.158Z,100.00
2023-05-25T20:30:28.592Z,100.00
2023-05-25T20:32:55.804Z,100.00
2023-05-25T20:35:22.717Z,100.00
2023-05-25T20:37:49.651Z,100.00
2023-05-25T20:40:16.845Z,100.00
2023-05-25T20:42:43.766Z,100.00
2023-05-25T20:45:10.686Z,100.00
2023-05-25T20:47:40.021Z,100.00
2023-05-25T20:50:07.660Z,100.00
2023-05-25T20:52:35.712Z,100.00
2023-05-25T20:55:02.884Z,100.00
2023-05-25T20:57:30.106Z,100.00
2023-05-25T20:59:59.240Z,100.00
2023-05-25T21:02:28.016Z,100.00
2023-05-25T21:04:54.961Z,100.00
2023-05-25T21:07:21.599Z,100.00
2023-05-25T21:09:48.436Z,100.00
2023-05-25T21:12:15.598Z,100.00
2023-05-25T21:14:42.346Z,100.00
2023-05-25T21:17:10.121Z,100.00
2023-05-25T21:19:37.210Z,100.00
2023-05-25T21:22:04.090Z,100.00
2023-05-25T21:24:32.451Z,100.00
2023-05-25T21:27:00.931Z,100.00
2023-05-25T21:29:27.793Z,100.00
2023-05-25T21:31:54.555Z,100.00
2023-05-25T21:34:21.255Z,100.00
2023-05-25T21:36:49.630Z,100.00
2023-05-25T21:39:16.420Z,100.00
2023-05-25T21:41:44.238Z,100.00
2023-05-25T21:44:11.390Z,100.00
2023-05-25T21:46:38.567Z,100.00
2023-05-25T21:49:05.411Z,100.00
2023-05-25T21:51:35.213Z,100.00
2023-05-25T21:54:02.530Z,100.00
2023-05-25T21:56:29.545Z,100.00
2023-05-25T21:58:56.368Z,100.00
2023-05-25T22:01:23.384Z,100.00
2023-05-25T22:03:50.616Z,100.00
2023-05-25T22:06:17.669Z,100.00
2023-05-25T22:08:44.458Z,100.00
2023-05-25T22:11:11.279Z,100.00
2023-05-25T22:13:38.203Z,100.00
2023-05-25T22:16:05.652Z,100.00
2023-05-25T22:18:32.972Z,100.00
2023-05-25T22:20:59.922Z,100.00
2023-05-25T22:23:27.019Z,100.00
2023-05-25T22:25:54.693Z,100.00
2023-05-25T22:28:22.678Z,100.00
2023-05-25T22:30:49.460Z,100.00
2023-05-25T22:33:17.065Z,100.00
2023-05-25T22:35:43.791Z,100.00
2023-05-25T22:38:10.710Z,100.00
2023-05-25T22:40:37.879Z,100.00
2023-05-25T22:43:12.194Z,100.00
2023-05-25T22:45:39.316Z,100.00
2023-05-25T22:48:06.828Z,100.00
2023-05-25T22:50:33.892Z,100.00
2023-05-25T22:53:00.997Z,100.00
2023-05-25T22:55:29.241Z,100.00
2023-05-25T22:57:56.078Z,100.00
2023-05-25T23:00:23.039Z,100.00
2023-05-25T23:02:49.874Z,100.00
2023-05-25T23:05:17.017Z,100.00
2023-05-25T23:07:44.597Z,100.00
2023-05-25T23:10:11.721Z,100.00
2023-05-25T23:12:38.610Z,100.00
2023-05-25T23:15:08.922Z,100.00
2023-05-25T23:17:36.014Z,100.00
2023-05-25T23:20:05.996Z,100.00
2023-05-25T23:22:33.666Z,100.00
2023-05-25T23:25:00.447Z,100.00
2023-05-25T23:27:47.400Z,100.00
2023-05-25T23:30:15.000Z,100.00
2023-05-25T23:32:42.133Z,100.00
2023-05-25T23:35:09.741Z,100.00
2023-05-25T23:37:37.029Z,100.00
2023-05-25T23:40:04.859Z,100.00
2023-05-25T23:42:42.157Z,100.00
2023-05-25T23:45:09.083Z,100.00
2023-05-25T23:47:35.996Z,100.00
2023-05-25T23:50:03.153Z,100.00
2023-05-25T23:52:30.063Z,100.00
2023-05-25T23:54:57.079Z,100.00
2023-05-25T23:57:23.861Z,100.00
2023-05-25T23:59:50.800Z,100.00
